Time;durP1;ratioP1;P1;durP2;ratioP2;P2;SDS_P1;SDS_P2;PMS_P1;PMS_P2;Temp;Humidity;BMP_temperature;BMP_pressure;BME280_temperature;BME280_humidity;BME280_pressure;Samples;Min_cycle;Max_cycle;Signal;HPM_P1;HPM_P2
2023/06/20 00:00:15;;;;;;;7.53;5.10;;;22.10;99.90;;;;;;5154030;27;20245;-69
2023/06/20 00:02:41;;;;;;;9.00;5.60;;;22.00;99.90;;;;;;5153468;27;20240;-68
2023/06/20 00:05:07;;;;;;;7.67;5.53;;;22.00;99.90;;;;;;5153332;27;20927;-69
2023/06/20 00:07:33;;;;;;;6.93;5.30;;;22.00;99.90;;;;;;5153795;27;20191;-69
2023/06/20 00:09:59;;;;;;;7.47;5.43;;;22.10;99.90;;;;;;5153750;27;20469;-69
2023/06/20 00:12:25;;;;;;;5.07;4.57;;;22.30;99.90;;;;;;5153800;27;20471;-68
2023/06/20 00:14:50;;;;;;;6.60;5.20;;;22.40;99.90;;;;;;5153718;27;20803;-68
2023/06/20 00:17:16;;;;;;;5.13;4.73;;;22.50;99.90;;;;;;5153723;27;20177;-69
2023/06/20 00:19:42;;;;;;;8.37;4.60;;;22.50;99.90;;;;;;5153574;27;20281;-69
2023/06/20 00:22:07;;;;;;;4.87;4.37;;;22.60;99.90;;;;;;5153676;27;20177;-69
2023/06/20 00:24:33;;;;;;;5.23;4.83;;;22.70;99.90;;;;;;5153449;27;20537;-69
2023/06/20 00:27:00;;;;;;;4.93;4.53;;;22.70;99.90;;;;;;5153328;27;20198;-68
2023/06/20 00:29:26;;;;;;;6.63;4.37;;;22.70;99.90;;;;;;5153407;27;20243;-69
2023/06/20 00:31:52;;;;;;;5.57;4.67;;;22.70;99.90;;;;;;5153030;27;20882;-69
2023/06/20 00:34:17;;;;;;;5.63;5.23;;;22.70;99.90;;;;;;5152836;27;20183;-69
2023/06/20 00:36:43;;;;;;;5.90;5.40;;;22.70;99.90;;;;;;5152621;27;20188;-69
2023/06/20 00:39:10;;;;;;;5.70;5.10;;;22.70;99.90;;;;;;5151320;27;20560;-68
2023/06/20 00:41:36;;;;;;;6.87;5.40;;;22.60;99.90;;;;;;5152615;27;20173;-69
2023/06/20 00:44:03;;;;;;;6.97;5.47;;;22.40;99.90;;;;;;5153172;27;20415;-69
2023/06/20 00:46:34;;;;;;;7.13;6.13;;;21.90;99.90;;;;;;5153025;27;20686;-69
2023/06/20 00:49:03;;;;;;;8.43;5.70;;;21.60;99.90;;;;;;5152868;27;20435;-69
2023/06/20 00:51:29;;;;;;;10.43;6.20;;;21.40;99.90;;;;;;5152907;27;20934;-68
2023/06/20 00:53:58;;;;;;;6.87;5.67;;;21.20;99.90;;;;;;5153088;27;20424;-69
2023/06/20 00:56:27;;;;;;;14.33;6.67;;;21.00;99.90;;;;;;5152626;27;20434;-69
2023/06/20 00:58:53;;;;;;;8.97;6.57;;;20.90;99.90;;;;;;5133783;27;20631;-69
2023/06/20 01:01:21;;;;;;;9.73;6.00;;;20.70;99.90;;;;;;5152242;27;20842;-69
2023/06/20 01:03:52;;;;;;;11.60;6.70;;;20.40;99.90;;;;;;5152194;27;20422;-68
2023/06/20 01:06:20;;;;;;;6.10;5.53;;;20.40;99.90;;;;;;5151983;27;20418;-68
2023/06/20 01:08:54;;;;;;;7.43;4.93;;;20.30;99.90;;;;;;5152301;27;20433;-68
2023/06/20 01:11:45;;;;;;;8.47;5.67;;;20.30;99.90;;;;;;5151739;27;20464;-69
2023/06/20 01:14:22;;;;;;;7.90;5.77;;;20.20;99.90;;;;;;5151819;27;20536;-69
2023/06/20 01:16:59;;;;;;;7.60;5.47;;;20.20;99.90;;;;;;5151941;27;20397;-69
2023/06/20 01:20:26;;;;;;;8.13;5.50;;;20.10;99.90;;;;;;5151717;27;20425;-69
2023/06/20 01:23:12;;;;;;;6.27;5.67;;;20.10;99.90;;;;;;5044267;28;20462;-69
2023/06/20 01:26:04;;;;;;;7.30;5.60;;;19.90;99.90;;;;;;5151747;27;20421;-69
2023/06/20 01:28:41;;;;;;;14.03;5.60;;;19.90;99.90;;;;;;5151624;27;20520;-68
2023/06/20 01:31:24;;;;;;;7.57;5.63;;;19.80;99.90;;;;;;5151584;27;20456;-69
2023/06/20 01:33:51;;;;;;;6.40;5.80;;;19.70;99.90;;;;;;5151726;27;20407;-69
2023/06/20 01:36:20;;;;;;;8.07;6.03;;;19.70;99.90;;;;;;5151505;27;20410;-68
2023/06/20 01:38:49;;;;;;;9.00;5.40;;;19.60;99.90;;;;;;5151580;27;20533;-69
2023/06/20 01:41:20;;;;;;;5.40;4.47;;;19.60;99.90;;;;;;5151666;27;20429;-69
2023/06/20 01:43:47;;;;;;;6.17;5.23;;;19.50;99.90;;;;;;5151499;27;20414;-68
2023/06/20 01:46:15;;;;;;;7.80;4.83;;;19.30;99.90;;;;;;5151436;27;20420;-69
2023/06/20 01:48:43;;;;;;;7.70;4.20;;;19.20;99.90;;;;;;5151884;27;20436;-68
2023/06/20 01:51:09;;;;;;;5.50;4.37;;;19.20;99.90;;;;;;5151599;27;20457;-69
2023/06/20 01:53:37;;;;;;;8.07;4.37;;;19.10;99.90;;;;;;5133119;27;20410;-69
2023/06/20 01:56:04;;;;;;;5.10;4.60;;;19.10;99.90;;;;;;5133121;27;20426;-68
2023/06/20 01:58:31;;;;;;;5.33;4.40;;;19.20;99.90;;;;;;5132624;27;20430;-68
2023/06/20 02:00:58;;;;;;;6.53;4.90;;;19.10;99.90;;;;;;5151503;27;20409;-68
2023/06/20 02:03:28;;;;;;;6.10;5.10;;;19.10;99.90;;;;;;5151578;27;20464;-68
2023/06/20 02:05:58;;;;;;;5.47;4.27;;;19.10;99.90;;;;;;5151400;27;20457;-68
2023/06/20 02:08:25;;;;;;;6.63;3.20;;;19.10;99.90;;;;;;5151345;27;20896;-67
2023/06/20 02:10:51;;;;;;;5.47;3.40;;;19.10;99.90;;;;;;5132488;27;20978;-68
2023/06/20 02:13:21;;;;;;;3.97;3.57;;;19.20;99.90;;;;;;5151581;27;20406;-68
2023/06/20 02:15:50;;;;;;;3.93;3.17;;;19.10;99.90;;;;;;5151216;27;20420;-68
2023/06/20 02:18:16;;;;;;;2.90;2.70;;;19.10;99.90;;;;;;5151099;27;21008;-68
2023/06/20 02:20:42;;;;;;;3.10;2.40;;;19.10;99.90;;;;;;5151198;27;20421;-68
2023/06/20 02:23:09;;;;;;;3.13;2.10;;;19.10;99.90;;;;;;5151032;27;20254;-67
2023/06/20 02:25:37;;;;;;;3.00;2.30;;;19.20;99.90;;;;;;5131943;27;20276;-68
2023/06/20 02:28:04;;;;;;;3.40;2.90;;;19.00;99.90;;;;;;5150236;27;20444;-68
2023/06/20 02:30:31;;;;;;;5.17;2.03;;;19.00;99.90;;;;;;5150496;27;20479;-67
2023/06/20 02:32:59;;;;;;;1.60;1.50;;;19.20;99.90;;;;;;5150326;27;20408;-67
2023/06/20 02:35:26;;;;;;;2.33;1.60;;;19.20;99.90;;;;;;5150229;27;20414;-68
2023/06/20 02:37:58;;;;;;;2.90;1.97;;;19.30;99.90;;;;;;5150406;27;20529;-68
2023/06/20 02:40:25;;;;;;;2.10;2.00;;;19.40;99.90;;;;;;5131608;27;20433;-68
2023/06/20 02:42:50;;;;;;;3.10;2.03;;;19.20;99.90;;;;;;5150242;27;20838;-68
2023/06/20 02:45:17;;;;;;;4.47;2.20;;;19.20;99.90;;;;;;5131840;27;20416;-69
2023/06/20 02:47:49;;;;;;;2.57;2.37;;;19.20;99.90;;;;;;5150395;27;20438;-68
2023/06/20 02:50:24;;;;;;;6.10;3.10;;;19.10;99.90;;;;;;5150071;27;20461;-69
2023/06/20 02:53:00;;;;;;;2.80;2.20;;;19.00;99.90;;;;;;5150595;27;20491;-68
2023/06/20 02:55:45;;;;;;;3.10;2.07;;;18.90;99.90;;;;;;5150574;27;20413;-69
2023/06/20 02:58:12;;;;;;;3.43;2.00;;;18.90;99.90;;;;;;5150896;27;20764;-68
2023/06/20 03:00:52;;;;;;;1.90;1.73;;;18.90;99.90;;;;;;5150551;27;20430;-68
2023/06/20 03:03:27;;;;;;;3.30;1.63;;;19.00;99.90;;;;;;5154600;27;20787;-68
2023/06/20 03:05:56;;;;;;;1.67;1.40;;;19.00;99.90;;;;;;5155152;27;20536;-68
2023/06/20 03:08:24;;;;;;;1.67;1.27;;;19.00;99.90;;;;;;5155028;27;20810;-68
2023/06/20 03:10:51;;;;;;;1.30;1.20;;;19.00;99.90;;;;;;5155053;27;20511;-69
2023/06/20 03:13:16;;;;;;;1.37;1.17;;;19.00;99.90;;;;;;5155124;27;20416;-68
2023/06/20 03:15:42;;;;;;;1.63;1.20;;;19.10;99.90;;;;;;5155027;27;20405;-69
2023/06/20 03:18:08;;;;;;;1.40;1.10;;;19.20;99.90;;;;;;5154943;27;20175;-68
2023/06/20 03:20:34;;;;;;;4.00;1.60;;;19.10;99.90;;;;;;5136714;27;20213;-68
2023/06/20 03:23:00;;;;;;;2.13;1.43;;;19.00;99.90;;;;;;5155283;27;20179;-68
2023/06/20 03:25:25;;;;;;;3.93;1.83;;;19.00;99.90;;;;;;5155521;27;20421;-69
2023/06/20 03:27:51;;;;;;;4.13;1.90;;;19.00;99.90;;;;;;5155088;27;20279;-68
2023/06/20 03:30:17;;;;;;;5.17;1.30;;;19.00;99.90;;;;;;5155000;27;20223;-68
2023/06/20 03:32:42;;;;;;;1.63;1.50;;;19.10;99.90;;;;;;5155005;27;20650;-68
2023/06/20 03:35:08;;;;;;;3.07;1.00;;;19.10;99.90;;;;;;5154718;27;20191;-69
2023/06/20 03:37:34;;;;;;;2.00;1.33;;;19.10;99.90;;;;;;5154544;27;20179;-68
2023/06/20 03:40:00;;;;;;;1.70;1.40;;;19.10;99.90;;;;;;5154287;27;20605;-68
2023/06/20 03:42:25;;;;;;;3.60;1.10;;;19.10;99.90;;;;;;5154406;27;20413;-68
2023/06/20 03:44:51;;;;;;;1.93;1.10;;;19.20;99.90;;;;;;5154076;27;20187;-69
2023/06/20 03:47:17;;;;;;;1.53;1.00;;;19.20;99.90;;;;;;5135379;27;20184;-68
2023/06/20 03:49:43;;;;;;;3.40;1.70;;;19.20;99.90;;;;;;5153944;27;20636;-68
2023/06/20 03:52:08;;;;;;;4.20;1.30;;;19.30;99.90;;;;;;5154050;27;20459;-68
2023/06/20 03:54:34;;;;;;;5.07;1.30;;;19.30;99.90;;;;;;5154162;27;20184;-67
2023/06/20 03:57:01;;;;;;;2.23;1.30;;;19.20;99.90;;;;;;5154121;27;20182;-68
2023/06/20 03:59:26;;;;;;;4.50;1.23;;;19.20;99.90;;;;;;5153955;27;20485;-68
2023/06/20 04:01:52;;;;;;;2.27;1.50;;;19.10;99.90;;;;;;5154126;27;20428;-68
2023/06/20 04:04:18;;;;;;;3.37;1.93;;;19.10;99.90;;;;;;5153956;27;20272;-72
2023/06/20 04:06:49;;;;;;;4.90;2.23;;;19.20;99.90;;;;;;5154166;27;20505;-72
2023/06/20 04:09:17;;;;;;;3.37;1.73;;;19.30;99.90;;;;;;5154064;27;20252;-72
2023/06/20 04:11:43;;;;;;;4.53;1.97;;;19.20;99.90;;;;;;5135196;27;20528;-73
2023/06/20 04:14:09;;;;;;;4.57;1.63;;;19.30;99.90;;;;;;5153800;27;20778;-72
2023/06/20 04:16:35;;;;;;;2.77;2.10;;;19.30;99.90;;;;;;5153785;27;20414;-73
2023/06/20 04:19:00;;;;;;;2.53;2.07;;;19.30;99.90;;;;;;5153595;27;20197;-73
2023/06/20 04:21:26;;;;;;;2.77;1.93;;;19.40;99.90;;;;;;5133673;27;20184;-73
2023/06/20 04:23:51;;;;;;;3.17;2.10;;;19.40;99.90;;;;;;5151885;27;20184;-73
2023/06/20 04:26:17;;;;;;;6.13;2.97;;;19.50;99.90;;;;;;5151714;27;20604;-73
2023/06/20 04:28:43;;;;;;;3.30;2.43;;;19.60;99.90;;;;;;5151979;27;20279;-74
2023/06/20 04:31:11;;;;;;;9.30;2.60;;;19.70;99.90;;;;;;5133618;27;20310;-74
2023/06/20 04:33:43;;;;;;;2.93;2.33;;;19.70;99.90;;;;;;5152009;27;20776;-73
2023/06/20 04:36:13;;;;;;;3.13;2.80;;;19.60;99.90;;;;;;5134445;27;20418;-73
2023/06/20 04:38:40;;;;;;;2.30;1.80;;;19.60;99.90;;;;;;5152153;27;20437;-73
2023/06/20 04:41:05;;;;;;;4.47;2.30;;;19.70;99.90;;;;;;5152089;27;20940;-73
2023/06/20 04:43:31;;;;;;;4.43;3.20;;;19.70;99.90;;;;;;5151934;27;20422;-74
2023/06/20 04:45:57;;;;;;;3.17;2.30;;;19.80;99.90;;;;;;5116316;27;20199;-73
2023/06/20 04:48:30;;;;;;;4.70;2.30;;;19.80;99.90;;;;;;5133279;27;20524;-73
2023/06/20 04:50:56;;;;;;;3.07;1.93;;;19.80;99.90;;;;;;5151726;27;20268;-73
2023/06/20 04:53:23;;;;;;;7.10;2.40;;;19.90;99.90;;;;;;5151661;27;20419;-73
2023/06/20 04:55:49;;;;;;;3.40;2.03;;;19.90;99.90;;;;;;5151888;27;20419;-73
2023/06/20 04:58:15;;;;;;;2.60;2.37;;;19.90;99.90;;;;;;5151702;27;21306;-73
2023/06/20 05:00:41;;;;;;;4.57;2.70;;;19.80;99.90;;;;;;5151495;27;20521;-73
2023/06/20 05:03:07;;;;;;;9.13;3.10;;;20.00;99.90;;;;;;5151563;27;20952;-74
2023/06/20 05:05:33;;;;;;;6.10;2.37;;;20.10;99.90;;;;;;5132522;27;20186;-72
2023/06/20 05:07:58;;;;;;;6.87;2.57;;;20.10;99.90;;;;;;5151074;27;21245;-71
2023/06/20 05:10:24;;;;;;;5.30;3.00;;;20.10;99.90;;;;;;5150832;27;20220;-73
2023/06/20 05:12:50;;;;;;;3.77;2.63;;;20.20;99.90;;;;;;5132097;27;20259;-73
2023/06/20 05:15:16;;;;;;;3.43;2.80;;;20.20;99.90;;;;;;5150643;27;20515;-72
2023/06/20 05:17:41;;;;;;;10.70;2.97;;;20.20;99.90;;;;;;5150611;27;20184;-74
2023/06/20 05:20:08;;;;;;;3.93;3.20;;;20.30;99.90;;;;;;5150552;27;20869;-73
2023/06/20 05:22:34;;;;;;;4.80;2.50;;;20.30;99.90;;;;;;5150582;27;20177;-73
2023/06/20 05:24:59;;;;;;;8.30;3.60;;;20.40;99.90;;;;;;5131453;27;20423;-73
2023/06/20 05:27:25;;;;;;;6.33;3.40;;;20.40;99.90;;;;;;5150712;27;20229;-74
2023/06/20 05:29:51;;;;;;;6.03;3.30;;;20.50;99.90;;;;;;5132048;27;20211;-74
2023/06/20 05:32:16;;;;;;;7.53;3.80;;;20.50;99.90;;;;;;5132117;27;20634;-73
2023/06/20 05:34:42;;;;;;;5.47;3.50;;;20.60;99.90;;;;;;5150536;27;20724;-71
2023/06/20 05:37:07;;;;;;;4.90;3.23;;;20.60;99.90;;;;;;5150287;27;20192;-73
2023/06/20 05:39:33;;;;;;;5.47;3.43;;;20.60;99.90;;;;;;5150055;27;20211;-73
2023/06/20 05:41:58;;;;;;;4.97;4.10;;;20.60;99.90;;;;;;5131372;27;20180;-74
2023/06/20 05:44:24;;;;;;;6.97;3.73;;;20.70;99.90;;;;;;5150155;27;20199;-72
2023/06/20 05:46:49;;;;;;;4.73;4.00;;;20.80;99.90;;;;;;5131678;27;20216;-73
2023/06/20 05:49:15;;;;;;;8.20;4.00;;;20.80;99.90;;;;;;5131406;27;20207;-74
2023/06/20 05:51:44;;;;;;;8.93;3.53;;;20.80;99.90;;;;;;5131051;27;20222;-73
2023/06/20 05:54:10;;;;;;;8.53;5.00;;;20.90;99.90;;;;;;5150346;27;20649;-73
2023/06/20 05:56:35;;;;;;;7.93;4.30;;;21.00;99.90;;;;;;5131720;27;20414;-72
2023/06/20 05:59:01;;;;;;;6.43;4.30;;;21.10;99.90;;;;;;5131771;27;20480;-72
2023/06/20 06:01:27;;;;;;;5.90;4.17;;;21.10;99.90;;;;;;5150412;27;20184;-72
2023/06/20 06:03:52;;;;;;;6.90;4.03;;;21.10;99.90;;;;;;5150241;27;20176;-74
2023/06/20 06:06:18;;;;;;;7.60;4.77;;;21.20;99.90;;;;;;5114345;27;20188;-74
2023/06/20 06:08:43;;;;;;;5.47;3.67;;;21.20;99.90;;;;;;5131345;27;20211;-73
2023/06/20 06:11:09;;;;;;;4.30;3.53;;;21.30;99.90;;;;;;5149807;27;20226;-72
2023/06/20 06:13:35;;;;;;;5.50;4.40;;;21.30;99.90;;;;;;5149407;27;20204;-71
2023/06/20 06:16:00;;;;;;;13.53;4.47;;;21.40;99.90;;;;;;5149323;27;20608;-73
2023/06/20 06:18:26;;;;;;;5.50;4.70;;;21.40;99.90;;;;;;5149134;27;20223;-71
2023/06/20 06:20:52;;;;;;;8.23;4.53;;;21.60;99.90;;;;;;5149456;27;20216;-72
2023/06/20 06:23:17;;;;;;;6.03;4.23;;;21.60;99.90;;;;;;5130786;27;20196;-72
2023/06/20 06:25:45;;;;;;;5.60;4.40;;;21.60;99.90;;;;;;5149113;27;20608;-73
2023/06/20 06:28:11;;;;;;;7.97;4.10;;;21.90;99.90;;;;;;5148860;27;20217;-72
2023/06/20 06:30:37;;;;;;;8.07;4.13;;;21.90;99.90;;;;;;5148900;27;20493;-73
2023/06/20 06:33:07;;;;;;;5.07;3.63;;;22.00;99.90;;;;;;5130568;27;20442;-73
2023/06/20 06:35:33;;;;;;;6.97;4.30;;;22.10;99.90;;;;;;5148940;27;20324;-72
2023/06/20 06:37:59;;;;;;;5.03;4.20;;;22.30;99.90;;;;;;5129440;27;20427;-74
2023/06/20 06:40:24;;;;;;;7.97;4.43;;;22.30;99.90;;;;;;5148822;27;20438;-73
2023/06/20 06:42:50;;;;;;;13.27;3.77;;;22.20;99.90;;;;;;5149101;27;20196;-73
2023/06/20 06:45:16;;;;;;;6.67;4.20;;;22.30;99.90;;;;;;5149126;27;20837;-72
2023/06/20 06:47:42;;;;;;;7.57;4.03;;;22.30;99.90;;;;;;5148809;27;20410;-73
2023/06/20 06:50:08;;;;;;;5.97;4.67;;;22.50;99.90;;;;;;5130204;27;20201;-72
2023/06/20 06:52:36;;;;;;;6.07;4.60;;;22.60;99.90;;;;;;5148726;27;20183;-72
2023/06/20 06:55:02;;;;;;;5.77;4.50;;;22.60;99.90;;;;;;5148985;27;20454;-71
2023/06/20 06:57:28;;;;;;;9.03;4.37;;;22.80;99.90;;;;;;5148890;27;20410;-69
2023/06/20 06:59:53;;;;;;;9.50;3.90;;;22.70;99.90;;;;;;5130168;27;20959;-72
2023/06/20 07:02:20;;;;;;;9.83;4.73;;;22.70;99.90;;;;;;5148967;27;20220;-72
2023/06/20 07:04:46;;;;;;;8.90;4.40;;;22.90;99.90;;;;;;5149196;27;20181;-73
2023/06/20 07:07:11;;;;;;;10.00;5.33;;;23.10;99.90;;;;;;5149105;27;20424;-72
2023/06/20 07:09:37;;;;;;;7.90;3.93;;;23.20;99.90;;;;;;5149065;27;20215;-73
2023/06/20 07:12:06;;;;;;;10.50;4.50;;;23.30;99.90;;;;;;5148662;27;20216;-71
2023/06/20 07:14:33;;;;;;;10.37;5.10;;;23.50;99.90;;;;;;5112998;27;20260;-72
2023/06/20 07:16:59;;;;;;;6.27;3.80;;;23.60;99.90;;;;;;5148568;27;21136;-71
2023/06/20 07:19:25;;;;;;;8.63;4.03;;;23.50;99.90;;;;;;5148508;27;20442;-72
2023/06/20 07:21:50;;;;;;;6.70;4.53;;;23.60;99.90;;;;;;5148915;27;20420;-71
2023/06/20 07:24:16;;;;;;;9.50;4.47;;;23.60;99.90;;;;;;5148898;27;20227;-71
2023/06/20 07:26:42;;;;;;;8.30;4.80;;;23.70;99.90;;;;;;5148691;27;20198;-72
2023/06/20 07:29:07;;;;;;;8.53;4.57;;;23.70;99.90;;;;;;5149122;27;20231;-72
2023/06/20 07:31:33;;;;;;;11.83;5.53;;;23.80;99.90;;;;;;5149047;27;20696;-72
2023/06/20 07:33:58;;;;;;;10.10;4.93;;;23.90;99.90;;;;;;5149427;27;20269;-71
2023/06/20 07:36:24;;;;;;;11.90;4.43;;;24.10;99.90;;;;;;5149250;27;20557;-72
2023/06/20 07:38:50;;;;;;;7.77;4.87;;;24.20;99.90;;;;;;5130950;27;20206;-73
2023/06/20 07:41:15;;;;;;;10.40;5.27;;;24.20;99.90;;;;;;5149645;27;20199;-74
2023/06/20 07:43:41;;;;;;;5.90;4.40;;;24.20;99.90;;;;;;5113815;27;20247;-73
2023/06/20 07:46:06;;;;;;;6.83;4.63;;;24.40;99.90;;;;;;5149532;27;20195;-72
2023/06/20 07:48:32;;;;;;;8.20;4.60;;;24.60;99.90;;;;;;5150954;27;20204;-73
2023/06/20 07:50:57;;;;;;;9.63;4.60;;;24.60;99.90;;;;;;5153163;27;20723;-73
2023/06/20 07:53:23;;;;;;;7.97;4.70;;;24.80;99.90;;;;;;5153380;27;20183;-73
2023/06/20 07:55:49;;;;;;;6.87;4.13;;;24.90;99.90;;;;;;5134994;27;20176;-73
2023/06/20 07:58:15;;;;;;;7.03;4.60;;;25.00;99.90;;;;;;5153335;27;20240;-71
2023/06/20 08:00:40;;;;;;;7.20;4.57;;;25.00;99.90;;;;;;5153142;27;20423;-71
2023/06/20 08:03:07;;;;;;;9.17;4.63;;;25.10;99.90;;;;;;5153104;27;20278;-72
2023/06/20 08:05:32;;;;;;;8.13;4.93;;;25.10;99.90;;;;;;5152680;27;20194;-72
2023/06/20 08:07:58;;;;;;;8.63;4.80;;;25.10;99.90;;;;;;5152288;27;20428;-73
2023/06/20 08:10:24;;;;;;;7.90;4.50;;;25.00;99.90;;;;;;5116469;27;20279;-72
2023/06/20 08:12:49;;;;;;;7.93;4.50;;;24.90;99.90;;;;;;5133597;27;20688;-70
2023/06/20 08:15:15;;;;;;;7.37;5.30;;;24.90;99.90;;;;;;5152160;27;20196;-72
2023/06/20 08:17:41;;;;;;;10.10;4.70;;;25.00;99.90;;;;;;5152194;27;20214;-72
2023/06/20 08:20:09;;;;;;;5.60;4.23;;;25.20;99.90;;;;;;5152075;27;20203;-71
2023/06/20 08:22:35;;;;;;;6.53;5.20;;;25.50;99.90;;;;;;5151999;27;20242;-72
2023/06/20 08:25:00;;;;;;;6.83;4.70;;;25.50;99.90;;;;;;5152081;27;20463;-72
2023/06/20 08:27:26;;;;;;;13.30;5.30;;;25.60;99.90;;;;;;5151884;27;20470;-71
2023/06/20 08:29:52;;;;;;;8.53;5.43;;;25.50;99.90;;;;;;5152251;27;20486;-71
2023/06/20 08:32:17;;;;;;;8.00;5.10;;;25.80;99.90;;;;;;5133528;27;20235;-70
2023/06/20 08:34:43;;;;;;;9.37;4.83;;;26.00;99.90;;;;;;5152074;27;20631;-71
2023/06/20 08:37:08;;;;;;;10.00;4.50;;;26.40;99.90;;;;;;5151964;27;20181;-71
2023/06/20 08:39:35;;;;;;;6.40;4.73;;;26.40;99.90;;;;;;5133326;27;20257;-70
2023/06/20 08:42:01;;;;;;;9.03;4.93;;;26.70;99.90;;;;;;5152044;27;20841;-71
2023/06/20 08:44:27;;;;;;;8.20;5.10;;;26.70;99.90;;;;;;5151949;27;20451;-71
2023/06/20 08:46:57;;;;;;;7.30;4.63;;;26.70;99.90;;;;;;5133283;27;21002;-67
2023/06/20 08:49:23;;;;;;;10.60;5.27;;;26.90;99.90;;;;;;5151888;27;20204;-67
2023/06/20 08:51:52;;;;;;;9.60;5.23;;;27.20;99.90;;;;;;5151511;27;20823;-67
2023/06/20 08:54:20;;;;;;;8.70;4.20;;;27.30;99.90;;;;;;5151985;27;20801;-67
2023/06/20 08:56:48;;;;;;;6.43;4.67;;;27.60;99.90;;;;;;5151764;27;20405;-67
2023/06/20 08:59:13;;;;;;;10.17;5.20;;;27.80;99.90;;;;;;5150737;27;20792;-67
2023/06/20 09:01:39;;;;;;;7.83;5.20;;;27.90;99.90;;;;;;5151497;27;20459;-67
2023/06/20 09:04:05;;;;;;;6.57;5.30;;;28.20;99.90;;;;;;5151579;27;20728;-68
2023/06/20 09:06:38;;;;;;;5.90;4.80;;;28.50;99.90;;;;;;5151590;27;20193;-67
2023/06/20 09:09:15;;;;;;;9.13;5.07;;;28.70;99.90;;;;;;5151533;27;20888;-67
2023/06/20 09:11:52;;;;;;;8.33;5.00;;;28.60;99.90;;;;;;5151290;27;20505;-67
2023/06/20 09:14:18;;;;;;;8.10;5.40;;;28.60;99.90;;;;;;5151382;27;20769;-67
2023/06/20 09:16:47;;;;;;;8.57;4.53;;;28.50;99.90;;;;;;5132661;27;20432;-68
2023/06/20 09:19:13;;;;;;;10.17;5.37;;;28.70;99.90;;;;;;5151120;27;20425;-67
2023/06/20 09:21:41;;;;;;;8.57;5.40;;;29.10;99.90;;;;;;5151278;27;21075;-68
2023/06/20 09:24:07;;;;;;;5.03;4.40;;;29.60;99.90;;;;;;5151119;27;20198;-68
2023/06/20 09:26:34;;;;;;;6.43;4.67;;;29.70;99.90;;;;;;5151188;27;20840;-67
2023/06/20 09:29:14;;;;;;;7.50;5.03;;;30.10;99.90;;;;;;5151033;27;20756;-67
2023/06/20 09:31:45;;;;;;;8.60;4.23;;;30.20;99.90;;;;;;5150849;27;20462;-68
2023/06/20 09:34:18;;;;;;;10.03;4.67;;;30.60;99.90;;;;;;5150961;27;20482;-68
2023/06/20 09:36:45;;;;;;;6.67;5.07;;;30.80;99.60;;;;;;5150752;27;20465;-68
2023/06/20 09:39:17;;;;;;;6.93;5.00;;;31.10;99.10;;;;;;5150555;27;20435;-68
2023/06/20 09:41:53;;;;;;;8.60;4.20;;;31.00;96.30;;;;;;5150581;27;20849;-68
2023/06/20 09:44:20;;;;;;;7.87;5.17;;;31.30;95.60;;;;;;5150314;27;20503;-68
2023/06/20 09:46:46;;;;;;;8.67;4.73;;;31.50;92.60;;;;;;5150470;27;20410;-68
2023/06/20 09:49:13;;;;;;;9.10;5.20;;;31.30;93.20;;;;;;5150653;27;20440;-67
2023/06/20 09:51:50;;;;;;;7.17;4.73;;;31.60;94.60;;;;;;5150674;27;20569;-69
2023/06/20 09:54:34;;;;;;;4.13;3.83;;;31.80;93.50;;;;;;5150619;27;20498;-67
2023/06/20 09:57:08;;;;;;;8.83;4.73;;;31.90;92.60;;;;;;5150461;27;20424;-68
2023/06/20 09:59:38;;;;;;;8.40;4.20;;;32.00;92.80;;;;;;5150191;27;20533;-67
2023/06/20 10:02:07;;;;;;;6.10;4.60;;;32.00;92.60;;;;;;5150313;27;20416;-68
2023/06/20 10:04:39;;;;;;;6.40;3.90;;;32.10;92.00;;;;;;5150207;27;20420;-67
2023/06/20 10:07:05;;;;;;;8.10;4.00;;;32.10;92.20;;;;;;5150191;27;20429;-67
2023/06/20 10:09:31;;;;;;;5.37;4.87;;;32.40;91.40;;;;;;5150133;27;21253;-68
2023/06/20 10:11:57;;;;;;;8.90;4.60;;;32.30;92.30;;;;;;5149836;27;20465;-68
2023/06/20 10:14:24;;;;;;;7.70;4.63;;;32.10;92.40;;;;;;5131453;27;20433;-68
2023/06/20 10:16:52;;;;;;;4.90;4.37;;;32.10;92.90;;;;;;5150104;27;20414;-68
2023/06/20 10:19:19;;;;;;;6.00;4.57;;;32.00;90.20;;;;;;5149837;27;20934;-69
2023/06/20 10:21:57;;;;;;;4.93;4.17;;;32.00;89.80;;;;;;5149732;27;20545;-68
2023/06/20 10:24:30;;;;;;;8.30;4.37;;;32.10;90.70;;;;;;5149825;27;20413;-69
2023/06/20 10:27:03;;;;;;;5.00;4.37;;;31.90;90.40;;;;;;5149847;27;20909;-69
2023/06/20 10:29:29;;;;;;;9.30;4.50;;;32.00;90.40;;;;;;5149766;27;20528;-69
2023/06/20 10:31:55;;;;;;;7.77;4.43;;;32.00;90.40;;;;;;5149633;27;20568;-69
2023/06/20 10:34:34;;;;;;;7.63;4.63;;;31.90;88.70;;;;;;5149599;27;20177;-69
2023/06/20 10:37:25;;;;;;;5.80;4.10;;;31.90;89.20;;;;;;5149673;27;20199;-69
2023/06/20 10:39:55;;;;;;;6.17;4.63;;;32.00;86.20;;;;;;5149589;27;20470;-69
2023/06/20 10:42:50;;;;;;;8.90;5.03;;;31.90;88.50;;;;;;5149742;27;20417;-68
2023/06/20 10:45:16;;;;;;;5.90;4.13;;;32.00;86.60;;;;;;5127162;27;20434;-68
2023/06/20 10:47:42;;;;;;;15.60;4.27;;;32.10;89.50;;;;;;5149409;27;20405;-69
2023/06/20 10:50:08;;;;;;;7.07;4.97;;;32.10;86.40;;;;;;5129996;27;20465;-69
2023/06/20 10:52:35;;;;;;;9.03;4.70;;;32.20;88.00;;;;;;5149157;27;20173;-69
2023/06/20 10:55:01;;;;;;;6.63;4.03;;;32.10;88.30;;;;;;5149215;27;20986;-69
2023/06/20 10:57:28;;;;;;;6.40;4.07;;;32.20;89.70;;;;;;5148897;27;20410;-68
2023/06/20 10:59:54;;;;;;;17.33;4.60;;;32.20;89.20;;;;;;5149050;27;20437;-69
2023/06/20 11:02:20;;;;;;;5.37;4.83;;;32.20;88.90;;;;;;5149327;27;20421;-69
2023/06/20 11:04:50;;;;;;;12.70;5.40;;;32.30;90.30;;;;;;5130484;27;20188;-68
2023/06/20 11:07:16;;;;;;;10.57;4.23;;;32.40;89.20;;;;;;5149423;27;20878;-68
2023/06/20 11:09:41;;;;;;;6.40;4.97;;;32.30;90.00;;;;;;5149283;27;20434;-68
2023/06/20 11:12:07;;;;;;;8.60;4.73;;;32.30;89.20;;;;;;5130328;27;20212;-69
2023/06/20 11:14:33;;;;;;;6.27;5.03;;;32.20;90.70;;;;;;5130730;27;20548;-69
2023/06/20 11:17:00;;;;;;;7.00;5.07;;;32.20;90.50;;;;;;5149364;27;20410;-69
2023/06/20 11:19:28;;;;;;;8.63;4.80;;;32.20;91.20;;;;;;5149141;27;20295;-69
2023/06/20 11:21:54;;;;;;;9.83;5.10;;;32.30;90.90;;;;;;5149194;27;20414;-68
2023/06/20 11:24:20;;;;;;;6.63;5.20;;;32.40;91.70;;;;;;5133729;27;21076;-69
2023/06/20 11:26:46;;;;;;;12.93;5.10;;;32.50;91.50;;;;;;5153053;27;20521;-69
2023/06/20 11:29:12;;;;;;;9.40;4.70;;;32.60;90.60;;;;;;5153143;27;20461;-69
2023/06/20 11:31:37;;;;;;;8.07;5.07;;;32.60;91.70;;;;;;5153191;27;20457;-69
2023/06/20 11:34:07;;;;;;;10.17;5.37;;;32.60;90.20;;;;;;5153206;27;20181;-69
2023/06/20 11:36:34;;;;;;;10.90;5.77;;;32.60;90.30;;;;;;5153154;27;20177;-70
2023/06/20 11:39:04;;;;;;;7.30;5.33;;;32.60;91.00;;;;;;5152912;27;20478;-70
2023/06/20 11:41:31;;;;;;;6.43;5.00;;;32.70;91.40;;;;;;5135084;27;21136;-68
2023/06/20 11:43:57;;;;;;;7.33;5.70;;;32.70;91.30;;;;;;5152990;27;20943;-68
2023/06/20 11:46:22;;;;;;;8.70;5.10;;;32.80;91.40;;;;;;5153112;27;20432;-69
2023/06/20 11:48:53;;;;;;;8.40;5.60;;;32.70;89.30;;;;;;5134116;27;20207;-69
2023/06/20 11:51:23;;;;;;;7.87;4.87;;;32.70;89.40;;;;;;5152777;27;20204;-69
2023/06/20 11:54:00;;;;;;;7.07;4.53;;;32.70;88.90;;;;;;5134371;27;20508;-69
2023/06/20 11:56:26;;;;;;;9.10;5.23;;;32.60;90.80;;;;;;5153031;27;20424;-69
2023/06/20 11:58:53;;;;;;;5.93;4.90;;;32.60;89.50;;;;;;5152745;27;20433;-68
2023/06/20 12:01:24;;;;;;;5.57;4.73;;;32.70;90.00;;;;;;5152807;27;20196;-68
2023/06/20 12:04:12;;;;;;;9.13;5.00;;;32.80;88.90;;;;;;5152625;27;20417;-68
2023/06/20 12:06:39;;;;;;;7.10;5.30;;;32.60;87.10;;;;;;5152724;27;20428;-68
2023/06/20 12:09:13;;;;;;;18.13;5.77;;;32.40;89.20;;;;;;5152510;27;20861;-68
2023/06/20 12:11:54;;;;;;;9.33;5.13;;;32.30;90.10;;;;;;5152334;27;20543;-70
2023/06/20 12:14:22;;;;;;;8.33;4.87;;;32.30;90.90;;;;;;5152254;27;20401;-68
2023/06/20 12:16:48;;;;;;;16.13;5.60;;;32.50;90.90;;;;;;5152222;27;20410;-68
2023/06/20 12:19:15;;;;;;;9.07;6.00;;;32.70;88.40;;;;;;5152133;27;20433;-68
2023/06/20 12:21:42;;;;;;;9.97;5.27;;;32.70;90.90;;;;;;5152149;27;20406;-68
2023/06/20 12:24:09;;;;;;;9.27;5.77;;;32.90;89.60;;;;;;5152159;27;20418;-69
2023/06/20 12:26:35;;;;;;;8.90;5.10;;;32.80;90.20;;;;;;5151290;27;20524;-69
2023/06/20 12:29:01;;;;;;;6.27;4.93;;;32.90;91.70;;;;;;5151249;27;20433;-68
2023/06/20 12:31:26;;;;;;;5.87;5.27;;;32.70;87.50;;;;;;5132520;27;20854;-68
2023/06/20 12:33:52;;;;;;;7.87;5.13;;;32.80;89.70;;;;;;5150490;27;20184;-69
2023/06/20 12:36:18;;;;;;;8.70;5.00;;;32.80;86.30;;;;;;5150642;27;20211;-68
2023/06/20 12:38:44;;;;;;;7.43;5.20;;;32.80;86.10;;;;;;5151253;27;20790;-69
2023/06/20 12:41:12;;;;;;;7.03;5.47;;;32.80;86.50;;;;;;5150953;27;20251;-69
2023/06/20 12:43:38;;;;;;;8.60;5.20;;;32.90;88.20;;;;;;5150964;27;20429;-68
2023/06/20 12:46:04;;;;;;;12.60;5.47;;;32.90;88.50;;;;;;5150983;27;20418;-68
2023/06/20 12:48:30;;;;;;;7.73;5.00;;;33.00;90.10;;;;;;5150918;27;20446;-68